Time;durP1;ratioP1;P1;durP2;ratioP2;P2;SDS_P1;SDS_P2;PMS_P1;PMS_P2;Temp;Humidity;BMP_temperature;BMP_pressure;BME280_temperature;BME280_humidity;BME280_pressure;Samples;Min_cycle;Max_cycle;Signal;HPM_P1;HPM_P2
2022/11/11 00:02:13;;;;;;;12.30;3.60;;;9.40;99.90;;;;;;5226302;28;20301;-52
2022/11/11 00:04:43;;;;;;;7.83;2.90;;;9.40;99.90;;;;;;5241731;28;20205;-49
2022/11/11 00:07:14;;;;;;;18.07;4.50;;;9.40;99.90;;;;;;5241289;28;20191;-50
2022/11/11 00:09:44;;;;;;;6.77;2.80;;;9.50;99.90;;;;;;5232337;28;20186;-49
2022/11/11 00:12:15;;;;;;;6.53;2.60;;;9.30;99.90;;;;;;5244046;28;20220;-50
2022/11/11 00:14:46;;;;;;;10.23;3.50;;;9.30;99.90;;;;;;5234190;28;20711;-50
2022/11/11 00:25:52;;;;;;;7.97;3.43;;;9.40;99.90;;;;;;5238876;28;20959;-49
2022/11/11 00:28:22;;;;;;;5.67;2.70;;;9.30;99.90;;;;;;5235534;28;20450;-51
2022/11/11 00:31:04;;;;;;;8.33;2.90;;;9.30;99.90;;;;;;5233399;28;20441;-49
2022/11/11 00:33:34;;;;;;;7.43;3.43;;;9.30;99.90;;;;;;5234618;28;20182;-51
2022/11/11 00:36:06;;;;;;;7.60;3.10;;;9.30;99.90;;;;;;5236330;28;20866;-50
2022/11/11 00:38:45;;;;;;;6.50;2.40;;;9.30;99.90;;;;;;5242176;28;20187;-50
2022/11/11 00:41:19;;;;;;;11.43;3.80;;;9.20;99.90;;;;;;5242582;28;20979;-50
2022/11/11 00:43:49;;;;;;;14.63;3.40;;;9.10;99.90;;;;;;5230932;28;20429;-50
2022/11/11 00:51:58;;;;;;;7.67;3.40;;;9.10;99.90;;;;;;5237240;28;20452;-49
2022/11/11 00:54:29;;;;;;;7.03;3.33;;;9.00;99.90;;;;;;5248906;28;20436;-51
2022/11/11 00:56:59;;;;;;;11.67;3.30;;;9.00;99.90;;;;;;5244881;28;20256;-51
2022/11/11 00:59:30;;;;;;;7.63;2.73;;;9.10;99.90;;;;;;5249306;28;20190;-50
2022/11/11 01:02:00;;;;;;;5.90;3.43;;;9.00;99.90;;;;;;5248703;28;20194;-50
2022/11/11 01:04:31;;;;;;;15.17;4.17;;;9.00;99.90;;;;;;5244737;28;20231;-50
2022/11/11 01:07:02;;;;;;;19.47;2.80;;;9.00;99.90;;;;;;5245812;28;20643;-51
2022/11/11 01:09:32;;;;;;;12.43;2.83;;;8.90;99.90;;;;;;5249564;28;20186;-49
2022/11/11 01:12:03;;;;;;;6.47;3.07;;;8.90;99.90;;;;;;5247258;28;20651;-49
2022/11/11 01:14:34;;;;;;;10.90;3.47;;;8.90;99.90;;;;;;5248659;28;20221;-51
2022/11/11 01:17:05;;;;;;;6.27;2.80;;;8.90;99.90;;;;;;5237919;28;20433;-50
2022/11/11 01:19:35;;;;;;;7.30;3.07;;;8.90;99.90;;;;;;5239522;28;20186;-50
2022/11/11 01:22:06;;;;;;;15.03;3.40;;;9.00;99.90;;;;;;5239847;28;20436;-51
2022/11/11 01:24:37;;;;;;;6.17;2.10;;;9.00;99.90;;;;;;5228615;28;20186;-50
2022/11/11 01:27:08;;;;;;;15.97;3.27;;;9.10;99.90;;;;;;5230432;28;20325;-52
2022/11/11 01:29:38;;;;;;;11.63;2.80;;;9.10;99.90;;;;;;5252786;28;20512;-51
2022/11/11 01:32:09;;;;;;;11.93;2.63;;;9.20;99.90;;;;;;5250201;28;20658;-50
2022/11/11 01:34:40;;;;;;;9.33;3.50;;;9.20;99.90;;;;;;5247352;28;20556;-51
2022/11/11 01:37:10;;;;;;;10.10;3.40;;;9.30;99.90;;;;;;5245782;28;20186;-51
2022/11/11 01:39:41;;;;;;;7.40;2.60;;;9.20;99.90;;;;;;5238236;28;20195;-50
2022/11/11 01:42:11;;;;;;;7.13;3.10;;;9.20;99.90;;;;;;5244940;28;20552;-49
2022/11/11 01:44:45;;;;;;;9.47;2.63;;;9.20;99.90;;;;;;5242564;28;20269;-52
2022/11/11 01:47:17;;;;;;;8.00;3.40;;;9.20;99.90;;;;;;5238487;28;20179;-53
2022/11/11 01:49:56;;;;;;;9.83;2.90;;;9.20;99.90;;;;;;5234845;28;20444;-51
2022/11/11 01:52:38;;;;;;;9.93;3.20;;;9.20;99.90;;;;;;5245513;28;20446;-51
2022/11/11 01:55:21;;;;;;;14.13;3.43;;;9.20;99.90;;;;;;5223891;28;20492;-51
2022/11/11 01:58:13;;;;;;;12.83;3.13;;;9.20;99.90;;;;;;5238616;28;20436;-52
2022/11/11 02:00:44;;;;;;;9.07;3.20;;;9.20;99.90;;;;;;5247653;28;20836;-50
2022/11/11 02:03:16;;;;;;;19.50;4.47;;;9.20;99.90;;;;;;5248935;28;20430;-48
2022/11/11 02:05:47;;;;;;;6.93;3.80;;;9.20;99.90;;;;;;5238115;28;20677;-50
2022/11/11 02:08:33;;;;;;;6.00;3.60;;;9.20;99.90;;;;;;5247914;28;20469;-51
2022/11/11 02:11:15;;;;;;;16.80;2.90;;;9.10;99.90;;;;;;5244385;28;20842;-51
2022/11/11 02:16:34;;;;;;;15.97;3.60;;;9.00;99.90;;;;;;5235583;28;20622;-49
2022/11/11 02:19:06;;;;;;;6.00;2.90;;;8.90;99.90;;;;;;5237840;28;20599;-50
2022/11/11 02:21:45;;;;;;;6.90;3.07;;;9.00;99.90;;;;;;5254124;28;20187;-50
2022/11/11 02:24:17;;;;;;;10.10;2.97;;;8.90;99.90;;;;;;5228599;28;20433;-50
2022/11/11 02:26:49;;;;;;;3.90;2.87;;;9.00;99.90;;;;;;5240893;28;20451;-49
2022/11/11 02:29:21;;;;;;;6.30;2.10;;;9.00;99.90;;;;;;5263096;28;20424;-51
2022/11/11 02:31:52;;;;;;;6.90;3.43;;;9.00;99.90;;;;;;5246080;28;20438;-50
2022/11/11 02:34:29;;;;;;;19.50;3.27;;;9.00;99.90;;;;;;5239143;28;20816;-50
2022/11/11 02:37:03;;;;;;;8.10;2.90;;;9.00;99.90;;;;;;5247047;28;20236;-50
2022/11/11 02:39:41;;;;;;;6.77;3.23;;;9.00;99.90;;;;;;5243060;28;20440;-51
2022/11/11 02:42:15;;;;;;;7.60;2.73;;;9.00;99.90;;;;;;5241570;28;20440;-52
2022/11/11 02:44:45;;;;;;;8.03;2.73;;;9.00;99.90;;;;;;5248903;28;20458;-49
2022/11/11 02:47:16;;;;;;;3.70;2.37;;;9.00;99.90;;;;;;5240748;28;20485;-51
2022/11/11 02:49:46;;;;;;;8.27;2.20;;;9.10;99.90;;;;;;5222243;28;20224;-49
2022/11/11 02:52:17;;;;;;;5.80;2.30;;;9.00;99.90;;;;;;5235012;28;20187;-49
2022/11/11 02:54:48;;;;;;;7.27;3.10;;;9.00;99.90;;;;;;5237488;28;20209;-52
2022/11/11 02:57:18;;;;;;;6.57;2.40;;;9.00;99.90;;;;;;5257027;28;20218;-52
2022/11/11 02:59:49;;;;;;;13.90;2.43;;;9.00;99.90;;;;;;5241629;28;20550;-49
2022/11/11 03:02:20;;;;;;;12.57;3.07;;;9.00;99.90;;;;;;5235298;28;20658;-50
2022/11/11 03:04:51;;;;;;;5.17;2.73;;;9.00;99.90;;;;;;5229628;28;20191;-51
2022/11/11 03:07:22;;;;;;;9.40;2.43;;;9.00;99.90;;;;;;5238261;28;20261;-50
2022/11/11 03:09:53;;;;;;;5.90;2.90;;;9.00;99.90;;;;;;5232917;28;20179;-50
2022/11/11 03:12:23;;;;;;;5.80;2.80;;;9.00;99.90;;;;;;5242080;28;21314;-50
2022/11/11 03:14:54;;;;;;;5.90;2.90;;;9.00;99.90;;;;;;5227058;28;20258;-50
2022/11/11 03:17:39;;;;;;;2.80;2.60;;;9.10;99.90;;;;;;5245550;28;20178;-48
2022/11/11 03:23:06;;;;;;;5.33;2.60;;;9.00;99.90;;;;;;5235266;28;20473;-52
2022/11/11 03:25:44;;;;;;;3.70;2.70;;;9.10;99.90;;;;;;5232880;28;20460;-50
2022/11/11 03:28:20;;;;;;;5.10;2.57;;;9.10;99.90;;;;;;5237469;28;20436;-49
2022/11/11 03:30:50;;;;;;;5.70;3.07;;;9.10;99.90;;;;;;5241065;28;20436;-52
2022/11/11 03:33:21;;;;;;;7.90;2.70;;;9.10;99.90;;;;;;5242096;28;20433;-50
2022/11/11 03:35:52;;;;;;;7.20;3.03;;;9.10;99.90;;;;;;5246188;28;20567;-50
2022/11/11 03:38:23;;;;;;;12.03;2.30;;;9.10;99.90;;;;;;5244477;28;20284;-52
2022/11/11 03:40:56;;;;;;;7.60;3.30;;;9.10;99.90;;;;;;5242194;28;20602;-50
2022/11/11 03:43:28;;;;;;;5.53;2.33;;;9.10;99.90;;;;;;5241454;28;20425;-50
2022/11/11 03:46:01;;;;;;;6.10;2.63;;;9.00;99.90;;;;;;5234918;28;20468;-50
2022/11/11 03:48:33;;;;;;;3.70;2.87;;;9.00;99.90;;;;;;5240105;28;21331;-50
2022/11/11 03:51:04;;;;;;;10.10;2.90;;;9.00;99.90;;;;;;5241652;28;20436;-49
2022/11/11 03:53:34;;;;;;;2.53;2.20;;;8.90;99.90;;;;;;5236724;28;20447;-51
2022/11/11 03:56:05;;;;;;;3.40;2.50;;;8.90;99.90;;;;;;5228697;28;20569;-50
2022/11/11 03:58:36;;;;;;;9.20;3.20;;;8.90;99.90;;;;;;5232754;28;20224;-50
2022/11/11 04:10:21;;;;;;;12.00;3.47;;;8.90;99.90;;;;;;5238409;28;20429;-50
2022/11/11 04:12:25;;;;;;;13.67;2.90;;;8.90;99.90;;;;;;5235724;28;20532;-51
2022/11/11 04:17:45;;;;;;;5.73;2.53;;;8.90;99.90;;;;;;5246033;28;20424;-52
2022/11/11 04:23:05;;;;;;;5.17;3.10;;;9.00;99.90;;;;;;5251631;28;20178;-53
2022/11/11 04:25:48;;;;;;;9.17;3.10;;;9.00;99.90;;;;;;5247377;28;20449;-51
2022/11/11 04:31:08;;;;;;;4.47;2.30;;;9.00;99.90;;;;;;5240200;28;20797;-52
2022/11/11 04:33:38;;;;;;;7.70;3.10;;;9.00;99.90;;;;;;5247358;28;20425;-53
2022/11/11 04:36:09;;;;;;;5.27;2.73;;;8.90;99.90;;;;;;5239188;28;20221;-51
2022/11/11 04:41:29;;;;;;;13.73;3.07;;;8.90;99.90;;;;;;5236633;28;20182;-52
2022/11/11 04:46:48;;;;;;;6.90;3.27;;;8.80;99.90;;;;;;5244257;28;20221;-52
2022/11/11 04:49:19;;;;;;;6.33;3.10;;;8.80;99.90;;;;;;5241580;28;20527;-50
2022/11/11 04:56:46;;;;;;;10.33;3.30;;;8.70;99.90;;;;;;5250947;28;20236;-52
2022/11/11 04:57:29;;;;;;;8.03;3.20;;;8.80;99.90;;;;;;5251417;28;20456;-51
2022/11/11 05:00:00;;;;;;;8.03;3.10;;;8.80;99.90;;;;;;5262063;28;20416;-52
2022/11/11 05:05:20;;;;;;;9.23;2.87;;;8.80;99.90;;;;;;5239033;28;20253;-52
2022/11/11 05:10:40;;;;;;;10.20;3.03;;;8.80;99.90;;;;;;5247366;28;20433;-53
2022/11/11 05:21:38;;;;;;;4.70;3.00;;;8.80;99.90;;;;;;5233003;28;20998;-53
2022/11/11 05:26:57;;;;;;;2.63;2.37;;;8.70;99.90;;;;;;5241059;28;20202;-53
2022/11/11 05:29:28;;;;;;;7.83;3.30;;;8.70;99.90;;;;;;5261361;28;20432;-51
2022/11/11 05:32:00;;;;;;;13.73;2.87;;;8.70;99.90;;;;;;5248681;28;20202;-52
2022/11/11 05:34:30;;;;;;;3.60;2.60;;;8.60;99.90;;;;;;5248033;28;20243;-52
2022/11/11 05:37:01;;;;;;;8.80;3.63;;;8.60;99.90;;;;;;5248669;28;20471;-52
2022/11/11 05:39:32;;;;;;;6.30;3.03;;;8.60;99.90;;;;;;5247227;28;20178;-52
2022/11/11 05:42:03;;;;;;;7.50;2.87;;;8.60;99.90;;;;;;5228788;28;20186;-52
2022/11/11 05:44:34;;;;;;;7.93;2.60;;;8.60;99.90;;;;;;5244796;28;20186;-52
2022/11/11 05:47:04;;;;;;;7.37;2.93;;;8.60;99.90;;;;;;5248263;28;20452;-54
2022/11/11 05:49:35;;;;;;;10.73;2.83;;;8.60;99.90;;;;;;5242992;28;20183;-52
2022/11/11 05:52:06;;;;;;;4.77;2.80;;;8.60;99.90;;;;;;5242213;28;20272;-52
2022/11/11 05:54:37;;;;;;;5.50;2.60;;;8.60;99.90;;;;;;5248331;28;20190;-53
2022/11/11 05:57:08;;;;;;;8.50;3.10;;;8.70;99.90;;;;;;5249113;28;20995;-52
2022/11/11 05:59:39;;;;;;;11.93;2.90;;;8.70;99.90;;;;;;5237265;28;20472;-52
2022/11/11 06:02:10;;;;;;;8.07;3.40;;;8.70;99.90;;;;;;5238231;28;20191;-51
2022/11/11 06:04:40;;;;;;;3.13;2.37;;;8.70;99.90;;;;;;5249354;28;20603;-51
2022/11/11 06:07:11;;;;;;;5.50;2.97;;;8.70;99.90;;;;;;5248517;28;20460;-52
2022/11/11 06:09:42;;;;;;;5.77;2.40;;;8.70;99.90;;;;;;5247590;28;20687;-52
2022/11/11 06:12:12;;;;;;;4.47;2.70;;;8.70;99.90;;;;;;5249120;28;20186;-52
2022/11/11 06:14:43;;;;;;;5.70;2.77;;;8.70;99.90;;;;;;5248920;28;20209;-53
2022/11/11 06:17:13;;;;;;;3.80;2.60;;;8.60;99.90;;;;;;5248356;28;20236;-53
2022/11/11 06:19:44;;;;;;;8.50;2.73;;;8.70;99.90;;;;;;5246925;28;20178;-53
2022/11/11 06:22:54;;;;;;;4.87;2.97;;;8.70;99.90;;;;;;5248762;28;20277;-53
2022/11/11 06:27:55;;;;;;;5.73;2.93;;;8.70;99.90;;;;;;5248238;28;20436;-53
2022/11/11 06:30:25;;;;;;;4.70;2.70;;;8.70;99.90;;;;;;5245422;28;20425;-53
2022/11/11 06:32:56;;;;;;;3.17;2.90;;;8.70;99.90;;;;;;5247544;28;20221;-52
2022/11/11 06:35:26;;;;;;;5.80;2.80;;;8.70;99.90;;;;;;5246708;28;20224;-53
2022/11/11 06:37:57;;;;;;;6.33;2.50;;;8.70;99.90;;;;;;5247046;28;20178;-52
2022/11/11 06:40:28;;;;;;;4.87;2.57;;;8.80;99.90;;;;;;5247682;28;20188;-53
2022/11/11 06:42:59;;;;;;;5.60;3.07;;;8.70;99.90;;;;;;5246880;28;20521;-53
2022/11/11 06:45:30;;;;;;;5.33;3.40;;;8.80;99.90;;;;;;5247598;28;20217;-53
2022/11/11 06:48:02;;;;;;;8.90;3.47;;;8.90;99.90;;;;;;5247994;28;20617;-54
2022/11/11 06:50:33;;;;;;;9.97;3.40;;;8.90;99.90;;;;;;5247628;28;20481;-54
2022/11/11 06:53:12;;;;;;;10.53;3.30;;;8.90;99.90;;;;;;5246831;28;20444;-53
2022/11/11 06:55:43;;;;;;;10.63;3.47;;;9.10;99.90;;;;;;5242924;28;20802;-52
2022/11/11 06:58:18;;;;;;;4.07;3.07;;;9.10;99.90;;;;;;5246541;28;20523;-52
2022/11/11 07:00:49;;;;;;;9.83;3.37;;;9.10;99.90;;;;;;5246583;28;20466;-54
2022/11/11 07:03:21;;;;;;;6.90;2.50;;;9.20;99.90;;;;;;5245785;28;20457;-53
2022/11/11 07:05:54;;;;;;;7.53;3.23;;;9.20;99.90;;;;;;5247048;28;20460;-53
2022/11/11 07:08:25;;;;;;;8.00;3.00;;;9.20;99.90;;;;;;5247889;28;20931;-53
2022/11/11 07:10:56;;;;;;;3.37;2.83;;;9.30;99.90;;;;;;5242197;28;20449;-53
2022/11/11 07:13:26;;;;;;;7.40;3.03;;;9.30;99.90;;;;;;5246739;28;21016;-53
2022/11/11 07:15:57;;;;;;;5.60;2.87;;;9.40;99.90;;;;;;5248088;28;20214;-54
2022/11/11 07:18:28;;;;;;;7.63;2.50;;;9.40;99.90;;;;;;5249135;28;20178;-52
2022/11/11 07:20:58;;;;;;;4.03;2.80;;;9.50;99.90;;;;;;5247302;28;20186;-53
2022/11/11 07:23:29;;;;;;;6.23;3.07;;;9.40;99.90;;;;;;5245942;28;20182;-53
2022/11/11 07:25:59;;;;;;;4.80;3.23;;;9.50;99.90;;;;;;5228063;28;20202;-53
2022/11/11 07:28:30;;;;;;;8.63;3.00;;;9.50;99.90;;;;;;5243879;28;20546;-53
2022/11/11 07:31:00;;;;;;;5.10;3.30;;;9.60;99.90;;;;;;5247138;28;20190;-53
2022/11/11 07:33:31;;;;;;;7.27;3.60;;;9.60;99.90;;;;;;5246778;28;20641;-52
2022/11/11 07:36:02;;;;;;;14.00;4.77;;;9.70;99.90;;;;;;5246613;28;20293;-53
2022/11/11 07:38:32;;;;;;;8.80;4.77;;;9.70;99.90;;;;;;5235792;28;20222;-53
2022/11/11 07:41:04;;;;;;;3.70;3.40;;;9.80;99.90;;;;;;5241186;28;20619;-53
2022/11/11 07:43:34;;;;;;;10.67;4.60;;;9.90;99.90;;;;;;5235072;28;20178;-54
2022/11/11 07:46:05;;;;;;;9.83;5.77;;;10.00;99.90;;;;;;5244915;28;20456;-53
2022/11/11 07:48:35;;;;;;;5.97;3.70;;;10.10;99.90;;;;;;5246091;28;20193;-52
2022/11/11 07:51:06;;;;;;;10.43;4.33;;;10.10;99.90;;;;;;5247442;28;20190;-53
2022/11/11 07:53:37;;;;;;;4.80;3.13;;;10.20;99.90;;;;;;5246865;28;20184;-53
2022/11/11 07:56:07;;;;;;;4.93;3.07;;;10.30;99.90;;;;;;5246888;28;20232;-52
2022/11/11 07:58:38;;;;;;;4.07;3.10;;;10.40;99.90;;;;;;5246035;28;20269;-53
2022/11/11 08:01:09;;;;;;;3.47;2.73;;;10.40;99.90;;;;;;5245027;28;20239;-53
2022/11/11 08:03:48;;;;;;;12.70;3.97;;;10.50;99.90;;;;;;5245444;28;20175;-54
2022/11/11 08:06:20;;;;;;;6.00;2.87;;;10.50;99.90;;;;;;5240701;28;20258;-53
2022/11/11 08:08:51;;;;;;;7.70;2.47;;;10.60;99.90;;;;;;5247400;28;20443;-53
2022/11/11 08:13:39;;;;;;;11.43;2.93;;;10.60;99.90;;;;;;5245302;28;20516;-54
2022/11/11 08:14:12;;;;;;;4.33;3.00;;;10.70;99.90;;;;;;5244518;28;20221;-53
2022/11/11 08:16:42;;;;;;;7.30;3.93;;;10.90;99.90;;;;;;5245459;28;20468;-53
2022/11/11 08:19:13;;;;;;;10.60;2.90;;;10.90;99.90;;;;;;5245921;28;20584;-53
2022/11/11 08:21:44;;;;;;;9.67;3.60;;;11.00;99.90;;;;;;5239290;28;20181;-54
2022/11/11 08:24:15;;;;;;;12.30;4.03;;;11.00;99.90;;;;;;5245549;28;20296;-53
2022/11/11 08:26:46;;;;;;;10.43;5.73;;;11.00;99.90;;;;;;5246584;28;20669;-53
2022/11/11 08:29:17;;;;;;;9.10;2.83;;;11.10;99.90;;;;;;5242657;28;20550;-53
2022/11/11 08:31:48;;;;;;;4.83;2.97;;;11.30;99.90;;;;;;5245220;28;20511;-53
2022/11/11 08:34:18;;;;;;;5.97;3.23;;;11.40;99.90;;;;;;5244128;28;20175;-52
2022/11/11 08:36:49;;;;;;;3.27;2.53;;;11.40;99.90;;;;;;5245786;28;20211;-53
2022/11/11 08:39:19;;;;;;;5.23;3.07;;;11.50;99.90;;;;;;5247439;28;20185;-54
2022/11/11 08:41:50;;;;;;;8.60;3.30;;;11.60;99.90;;;;;;5244849;28;20540;-52
2022/11/11 08:44:20;;;;;;;5.50;3.00;;;11.70;99.90;;;;;;5244278;28;20232;-53
2022/11/11 08:46:51;;;;;;;4.73;3.03;;;11.90;99.90;;;;;;5245617;28;20205;-54
2022/11/11 08:49:22;;;;;;;4.20;2.30;;;12.00;99.90;;;;;;5244546;28;20186;-54
2022/11/11 08:51:52;;;;;;;6.40;3.60;;;12.10;99.90;;;;;;5243732;28;20182;-55
2022/11/11 08:54:23;;;;;;;7.50;3.97;;;12.30;99.90;;;;;;5226262;28;20328;-54
2022/11/11 08:56:55;;;;;;;10.73;3.67;;;12.50;99.90;;;;;;5245004;28;20210;-54
2022/11/11 08:59:25;;;;;;;5.60;2.90;;;12.60;99.90;;;;;;5244529;28;20290;-54
2022/11/11 09:01:56;;;;;;;3.87;3.33;;;12.70;99.90;;;;;;5245553;28;20436;-54
2022/11/11 09:04:26;;;;;;;5.07;2.50;;;12.80;99.90;;;;;;5247466;28;20229;-54
2022/11/11 09:06:57;;;;;;;7.40;3.87;;;12.90;99.90;;;;;;5244342;28;20233;-53
2022/11/11 09:09:28;;;;;;;5.73;2.70;;;13.00;99.90;;;;;;5249082;28;20183;-53
2022/11/11 09:11:59;;;;;;;10.47;3.00;;;12.90;99.90;;;;;;5245733;28;20435;-53
2022/11/11 09:14:29;;;;;;;4.70;3.17;;;13.00;99.90;;;;;;5242528;28;20217;-53
2022/11/11 09:17:00;;;;;;;7.57;3.37;;;13.00;99.90;;;;;;5246850;28;20302;-53
2022/11/11 09:19:31;;;;;;;3.30;2.80;;;13.10;99.90;;;;;;5248563;28;20174;-52
2022/11/11 09:22:02;;;;;;;9.93;3.03;;;13.20;99.90;;;;;;5249167;28;20259;-53
2022/11/11 09:24:32;;;;;;;8.00;2.70;;;13.20;99.90;;;;;;5250826;28;20540;-52
2022/11/11 09:27:03;;;;;;;3.90;2.50;;;13.30;99.90;;;;;;5252444;28;20249;-54
2022/11/11 09:29:33;;;;;;;7.40;2.63;;;13.30;99.90;;;;;;5244729;28;20189;-53
2022/11/11 09:32:04;;;;;;;2.90;2.70;;;13.20;99.90;;;;;;5250390;28;20186;-53
2022/11/11 09:34:35;;;;;;;5.70;2.93;;;13.20;99.90;;;;;;5248416;28;20193;-52
2022/11/11 09:37:06;;;;;;;2.97;2.10;;;13.30;99.90;;;;;;5248452;28;20284;-54
2022/11/11 09:39:36;;;;;;;7.10;2.40;;;13.30;99.90;;;;;;5249732;28;20186;-54
2022/11/11 09:42:39;;;;;;;3.03;2.77;;;13.30;99.90;;;;;;5248461;28;20205;-54
2022/11/11 09:45:16;;;;;;;2.83;2.40;;;13.30;99.90;;;;;;5244987;28;20203;-54
2022/11/11 09:47:59;;;;;;;6.00;2.93;;;13.30;99.90;;;;;;5263359;28;20431;-54
2022/11/11 09:50:34;;;;;;;3.00;2.80;;;13.30;99.90;;;;;;5245054;28;21041;-53
2022/11/11 09:53:12;;;;;;;6.10;2.90;;;13.20;99.90;;;;;;5248184;28;20527;-54
2022/11/11 09:55:55;;;;;;;9.00;2.43;;;13.30;99.90;;;;;;5248016;28;20562;-53
2022/11/11 09:58:29;;;;;;;4.40;2.30;;;13.30;99.90;;;;;;5248699;28;20420;-54
2022/11/11 10:01:22;;;;;;;3.47;2.53;;;13.30;99.90;;;;;;5248557;28;20417;-53
2022/11/11 10:04:22;;;;;;;6.13;3.23;;;13.30;99.90;;;;;;5247210;28;20427;-54
2022/11/11 10:07:04;;;;;;;6.00;2.50;;;13.40;99.90;;;;;;5210071;28;20527;-54
2022/11/11 10:09:44;;;;;;;3.00;2.70;;;13.40;99.90;;;;;;5248900;28;20421;-55
2022/11/11 10:12:15;;;;;;;7.70;2.57;;;13.50;99.90;;;;;;5220825;28;20464;-53
2022/11/11 10:14:49;;;;;;;3.50;2.63;;;13.50;99.90;;;;;;5246206;28;20436;-54
2022/11/11 10:17:41;;;;;;;2.70;2.60;;;13.60;99.90;;;;;;5278142;22;21026;-49
2022/11/11 10:20:31;;;;;;;3.50;2.60;;;13.70;99.90;;;;;;5268511;28;20436;-49
2022/11/11 10:23:17;;;;;;;4.07;3.13;;;13.70;99.90;;;;;;5266198;28;20911;-50
2022/11/11 10:25:56;;;;;;;8.43;3.30;;;13.80;99.90;;;;;;5268379;28;20538;-49
2022/11/11 10:28:32;;;;;;;9.70;2.87;;;13.70;99.90;;;;;;5268009;28;20442;-51
2022/11/11 10:31:16;;;;;;;4.83;3.30;;;13.70;99.90;;;;;;5266016;28;20419;-52
2022/11/11 10:34:15;;;;;;;16.53;3.60;;;13.70;99.90;;;;;;5267089;28;20419;-49
2022/11/11 10:36:51;;;;;;;5.40;3.10;;;13.70;99.90;;;;;;5267329;28;20474;-49
2022/11/11 10:39:44;;;;;;;2.53;2.33;;;13.80;99.90;;;;;;5268634;28;20444;-50
2022/11/11 10:42:17;;;;;;;3.17;2.57;;;13.90;99.90;;;;;;5269003;28;20444;-49
2022/11/11 10:44:48;;;;;;;3.77;2.73;;;14.00;99.90;;;;;;5270317;28;20428;-50
2022/11/11 10:47:38;;;;;;;2.93;2.37;;;14.10;99.90;;;;;;5269170;28;20492;-49
2022/11/11 10:50:17;;;;;;;2.83;2.47;;;14.20;99.90;;;;;;5268647;28;20768;-49
2022/11/11 10:53:06;;;;;;;4.23;2.87;;;14.30;99.90;;;;;;5267776;28;20474;-50
2022/11/11 10:55:50;;;;;;;6.07;3.20;;;14.40;99.90;;;;;;5269276;28;20585;-50
2022/11/11 10:58:32;;;;;;;9.17;4.50;;;14.40;99.90;;;;;;5268209;28;20524;-52
2022/11/11 11:01:07;;;;;;;3.57;3.23;;;14.30;99.90;;;;;;5269074;28;20435;-50
2022/11/11 11:03:49;;;;;;;2.73;2.57;;;14.30;99.90;;;;;;5265284;28;20428;-54
2022/11/11 11:06:26;;;;;;;4.10;2.80;;;14.30;99.90;;;;;;5264514;28;20459;-47
2022/11/11 11:09:13;;;;;;;2.20;2.10;;;14.30;99.90;;;;;;5263558;28;20567;-50
2022/11/11 11:12:02;;;;;;;8.00;3.30;;;14.20;99.90;;;;;;5267339;28;20439;-51
2022/11/11 11:14:43;;;;;;;2.40;2.20;;;14.30;99.90;;;;;;5269796;28;20496;-48
2022/11/11 11:17:21;;;;;;;2.70;2.50;;;14.30;99.90;;;;;;5269035;28;20471;-50
2022/11/11 11:20:13;;;;;;;3.77;2.77;;;14.30;99.90;;;;;;5268832;28;20454;-50
2022/11/11 11:22:46;;;;;;;3.40;2.90;;;14.40;99.90;;;;;;5268749;28;20442;-48
2022/11/11 11:25:18;;;;;;;7.53;4.13;;;14.40;99.90;;;;;;5265188;28;20427;-50
2022/11/11 11:27:51;;;;;;;4.33;2.73;;;14.30;99.90;;;;;;5281890;28;20518;-50
2022/11/11 11:30:24;;;;;;;10.47;3.80;;;14.40;99.90;;;;;;5269438;28;20931;-50
2022/11/11 11:33:04;;;;;;;7.60;2.60;;;14.40;99.90;;;;;;5266113;28;20439;-50
2022/11/11 11:35:43;;;;;;;5.73;2.93;;;14.30;99.90;;;;;;5267308;28;20506;-48
2022/11/11 11:38:14;;;;;;;3.70;2.60;;;14.30;99.90;;;;;;5266180;28;20451;-50
2022/11/11 11:40:48;;;;;;;4.10;2.40;;;14.30;99.90;;;;;;5267722;28;20439;-49
2022/11/11 11:43:25;;;;;;;13.47;2.53;;;14.30;99.90;;;;;;5267575;28;20476;-49
2022/11/11 11:45:58;;;;;;;4.77;2.77;;;14.30;99.90;;;;;;5266625;28;21015;-48
2022/11/11 11:48:51;;;;;;;7.70;2.40;;;14.30;99.90;;;;;;5267797;28;21052;-48
2022/11/11 11:51:33;;;;;;;13.20;3.60;;;14.20;99.90;;;;;;5268464;28;20435;-49
2022/11/11 11:54:19;;;;;;;7.00;2.30;;;14.20;99.90;;;;;;5267064;28;20466;-50
2022/11/11 11:56:55;;;;;;;6.17;3.27;;;14.10;99.90;;;;;;5267346;28;21002;-49
2022/11/11 11:59:30;;;;;;;2.87;2.37;;;14.20;99.90;;;;;;5269041;28;20443;-48
2022/11/11 12:02:29;;;;;;;6.47;2.23;;;14.10;99.90;;;;;;5266346;28;20446;-51
2022/11/11 12:05:10;;;;;;;4.77;2.43;;;14.20;99.90;;;;;;5265201;28;20432;-49
2022/11/11 12:08:05;;;;;;;4.80;3.17;;;14.20;99.90;;;;;;5263988;28;20435;-52
2022/11/11 12:10:48;;;;;;;3.50;3.20;;;14.10;99.90;;;;;;5267842;28;20422;-49
2022/11/11 12:13:42;;;;;;;3.03;1.67;;;14.10;99.90;;;;;;5269756;28;20407;-51
2022/11/11 12:16:25;;;;;;;4.40;2.87;;;14.20;99.90;;;;;;5265755;28;20916;-50
2022/11/11 12:18:59;;;;;;;3.57;2.03;;;14.10;99.90;;;;;;5256810;28;20901;-51
2022/11/11 12:21:51;;;;;;;6.80;3.23;;;14.10;99.90;;;;;;5268212;28;20477;-49
2022/11/11 12:24:51;;;;;;;2.70;2.40;;;14.20;99.90;;;;;;5235661;28;20451;-48
2022/11/11 12:27:43;;;;;;;3.23;1.87;;;14.10;99.90;;;;;;5266221;28;20540;-47
2022/11/11 12:30:19;;;;;;;3.17;1.97;;;14.10;99.90;;;;;;5268199;28;21064;-48
2022/11/11 12:32:56;;;;;;;9.37;3.77;;;14.10;99.90;;;;;;5266171;28;20435;-50
2022/11/11 12:35:39;;;;;;;7.20;2.37;;;14.20;99.90;;;;;;5267734;28;20989;-50
2022/11/11 12:38:16;;;;;;;2.67;1.33;;;14.20;99.90;;;;;;5270184;28;20436;-50
2022/11/11 12:41:13;;;;;;;1.60;1.50;;;14.20;99.90;;;;;;5271148;28;20446;-50
2022/11/11 12:44:02;;;;;;;1.83;1.67;;;14.30;99.90;;;;;;5271048;28;20935;-49
2022/11/11 12:47:04;;;;;;;1.90;1.80;;;14.40;99.90;;;;;;5269740;28;20479;-49
2022/11/11 12:49:52;;;;;;;3.87;3.30;;;14.40;99.90;;;;;;5272011;28;20782;-51
2022/11/11 12:52:52;;;;;;;7.23;3.50;;;14.30;99.90;;;;;;5271206;28;20496;-49
2022/11/11 12:55:47;;;;;;;4.63;2.20;;;14.30;99.90;;;;;;5262577;28;20835;-49
2022/11/11 12:58:33;;;;;;;1.80;1.70;;;14.30;99.90;;;;;;5261819;28;20420;-48
2022/11/11 13:01:42;;;;;;;5.30;2.30;;;14.30;99.90;;;;;;5266498;28;20806;-50
2022/11/11 13:04:28;;;;;;;3.07;1.77;;;14.20;99.90;;;;;;5265814;28;20450;-50
2022/11/11 13:07:18;;;;;;;1.70;1.60;;;14.30;99.90;;;;;;5269760;28;20849;-48
2022/11/11 13:10:34;;;;;;;3.30;2.30;;;14.30;99.90;;;;;;5271172;28;20520;-51
2022/11/11 13:13:22;;;;;;;12.27;2.70;;;14.20;99.90;;;;;;5249589;28;20444;-49
2022/11/11 13:15:55;;;;;;;13.70;2.63;;;14.10;99.90;;;;;;5270332;28;20510;-51
2022/11/11 13:18:50;;;;;;;1.60;1.50;;;14.10;99.90;;;;;;5271247;28;20431;-48
2022/11/11 13:21:42;;;;;;;3.13;1.30;;;14.10;99.90;;;;;;5269247;28;20503;-50
2022/11/11 13:24:16;;;;;;;4.70;1.87;;;14.10;99.90;;;;;;5264811;28;20443;-50
2022/11/11 13:27:02;;;;;;;1.80;1.70;;;14.00;99.90;;;;;;5270676;28;20815;-50
2022/11/11 13:30:01;;;;;;;2.70;2.23;;;13.90;99.90;;;;;;5271352;28;20439;-49
2022/11/11 13:32:46;;;;;;;2.97;1.60;;;13.90;99.90;;;;;;5260592;28;20443;-47
2022/11/11 13:35:29;;;;;;;2.67;2.47;;;13.80;99.90;;;;;;5269615;28;20830;-48
2022/11/11 13:38:00;;;;;;;2.60;2.40;;;13.80;99.90;;;;;;5252202;28;20436;-49
2022/11/11 13:40:44;;;;;;;3.57;2.23;;;13.70;99.90;;;;;;5270943;28;20514;-47
2022/11/11 13:43:22;;;;;;;5.40;1.90;;;13.60;99.90;;;;;;5268216;28;20939;-50
2022/11/11 13:45:55;;;;;;;3.87;2.07;;;13.60;99.90;;;;;;5270168;28;20470;-48
2022/11/11 13:48:54;;;;;;;3.90;1.87;;;13.50;99.90;;;;;;5269511;28;20443;-51
2022/11/11 13:51:37;;;;;;;3.10;2.30;;;13.50;99.90;;;;;;5268360;28;20572;-49
2022/11/11 13:54:21;;;;;;;6.50;2.80;;;13.50;99.90;;;;;;5269055;28;20823;-51
2022/11/11 13:57:00;;;;;;;3.43;2.57;;;13.50;99.90;;;;;;5268614;28;20540;-49
2022/11/11 13:59:36;;;;;;;4.93;2.70;;;13.40;99.90;;;;;;5269392;28;20435;-49
2022/11/11 14:02:19;;;;;;;5.47;3.20;;;13.40;99.90;;;;;;5269017;28;20496;-49
2022/11/11 14:05:02;;;;;;;2.60;1.90;;;13.40;99.90;;;;;;5269798;28;20483;-51
2022/11/11 14:07:48;;;;;;;3.67;1.60;;;13.30;99.90;;;;;;5270139;28;21807;-50
2022/11/11 14:10:19;;;;;;;4.77;3.30;;;13.30;99.90;;;;;;5257447;28;20454;-49
2022/11/11 14:12:54;;;;;;;1.93;1.43;;;13.30;99.90;;;;;;5270082;28;20511;-49
2022/11/11 14:15:40;;;;;;;1.87;1.77;;;13.20;99.90;;;;;;5270636;28;20208;-48
2022/11/11 14:18:17;;;;;;;3.13;2.83;;;13.20;99.90;;;;;;5268368;28;20452;-50
2022/11/11 14:20:52;;;;;;;2.13;1.93;;;13.00;99.90;;;;;;5269582;28;20440;-49
2022/11/11 14:23:29;;;;;;;7.57;2.00;;;13.00;99.90;;;;;;5265778;28;20768;-50
2022/11/11 14:26:08;;;;;;;9.93;3.47;;;12.90;99.90;;;;;;5269619;28;20447;-49
2022/11/11 14:28:54;;;;;;;13.70;4.90;;;12.90;99.90;;;;;;5270872;28;20978;-52
2022/11/11 14:31:40;;;;;;;9.37;4.27;;;12.90;99.90;;;;;;5268399;28;20423;-50
2022/11/11 14:34:42;;;;;;;3.40;2.33;;;12.70;99.90;;;;;;5267910;28;20458;-52
2022/11/11 14:37:21;;;;;;;6.50;3.47;;;12.70;99.90;;;;;;5269671;28;20470;-51
2022/11/11 14:39:55;;;;;;;3.80;2.37;;;12.60;99.90;;;;;;5268092;28;20435;-50
2022/11/11 14:42:35;;;;;;;2.50;2.30;;;12.60;99.90;;;;;;5268635;28;20432;-48